createdAt,value
2024-05-09T00:01:03.250Z,62.36
2024-05-09T00:02:06.397Z,61.88
2024-05-09T00:03:12.285Z,61.51
2024-05-09T00:04:16.128Z,61.43
2024-05-09T00:05:21.640Z,60.25
2024-05-09T00:06:25.251Z,59.79
2024-05-09T00:07:27.919Z,59.94
2024-05-09T00:08:30.572Z,59.31
2024-05-09T00:09:33.881Z,58.84
2024-05-09T00:10:39.986Z,58.79
2024-05-09T00:11:43.097Z,58.71
2024-05-09T00:12:47.628Z,58.99
2024-05-09T00:13:52.575Z,58.68
2024-05-09T00:14:58.225Z,58.57
2024-05-09T00:16:02.300Z,58.35
2024-05-09T00:18:27.629Z,58.11
2024-05-09T00:19:32.155Z,57.58
2024-05-09T00:20:42.615Z,57.48
2024-05-09T00:21:55.583Z,57.79
2024-05-09T00:22:57.801Z,57.68
2024-05-09T00:24:03.731Z,57.23
2024-05-09T00:25:06.725Z,57.31
2024-05-09T00:26:09.404Z,56.94
2024-05-09T00:27:13.596Z,56.92
2024-05-09T00:28:17.475Z,57.05
2024-05-09T00:29:21.153Z,57.18
2024-05-09T00:30:34.134Z,57.04
2024-05-09T00:31:33.077Z,56.81
2024-05-09T00:32:41.485Z,56.69
2024-05-09T00:33:46.325Z,56.96
2024-05-09T00:34:53.218Z,56.64
2024-05-09T00:35:58.497Z,56.68
2024-05-09T00:37:05.035Z,56.57
2024-05-09T00:38:08.551Z,56.52
2024-05-09T00:39:12.155Z,56.45
2024-05-09T00:40:22.872Z,56.53
2024-05-09T00:41:21.581Z,56.54
2024-05-09T00:42:24.387Z,56.42
2024-05-09T00:43:28.079Z,56.53
2024-05-09T00:44:32.450Z,56.49
2024-05-09T00:45:36.831Z,56.40
2024-05-09T00:46:40.606Z,56.15
2024-05-09T00:47:45.134Z,55.88
2024-05-09T00:48:52.870Z,55.90
2024-05-09T00:50:00.935Z,56.02
2024-05-09T00:51:07.159Z,55.85
2024-05-09T00:52:12.276Z,56.07
2024-05-09T00:53:18.252Z,56.03
2024-05-09T00:54:25.935Z,55.96
2024-05-09T00:55:29.793Z,55.80
2024-05-09T00:56:34.829Z,55.89
2024-05-09T00:57:40.660Z,56.03
2024-05-09T00:58:46.245Z,56.24
2024-05-09T00:59:49.653Z,56.09
2024-05-09T01:00:52.809Z,56.42
2024-05-09T01:02:03.677Z,56.54
2024-05-09T01:03:06.383Z,56.91
2024-05-09T01:04:11.619Z,56.72
2024-05-09T01:05:16.796Z,56.83
2024-05-09T01:06:22.365Z,56.90
2024-05-09T01:07:28.070Z,56.96
2024-05-09T01:08:30.959Z,56.99
2024-05-09T01:09:35.969Z,57.17
2024-05-09T01:10:42.842Z,57.13
2024-05-09T01:11:44.869Z,57.18
2024-05-09T01:12:49.394Z,57.14
2024-05-09T01:13:53.212Z,57.25
2024-05-09T01:14:59.374Z,57.23
2024-05-09T01:16:04.519Z,57.38
2024-05-09T01:17:09.014Z,57.46
2024-05-09T01:18:18.421Z,57.55
2024-05-09T01:19:28.063Z,57.54
2024-05-09T01:20:40.880Z,57.71
2024-05-09T01:21:41.134Z,57.79
2024-05-09T01:22:47.696Z,57.68
2024-05-09T01:23:51.247Z,57.59
2024-05-09T01:24:56.894Z,57.71
2024-05-09T01:26:00.190Z,57.67
2024-05-09T01:27:04.946Z,57.69
2024-05-09T01:28:11.602Z,57.98
2024-05-09T01:29:16.054Z,58.01
2024-05-09T01:30:34.684Z,57.96
2024-05-09T01:31:34.488Z,57.92
2024-05-09T01:32:47.935Z,57.99
2024-05-09T01:33:52.267Z,58.04
2024-05-09T01:34:54.684Z,58.12
2024-05-09T01:35:57.510Z,58.06
2024-05-09T01:37:01.707Z,58.11
2024-05-09T01:38:09.399Z,58.20
2024-05-09T01:39:15.184Z,58.13
2024-05-09T01:40:28.684Z,58.20
2024-05-09T01:41:42.544Z,58.26
2024-05-09T01:42:50.699Z,58.37
2024-05-09T01:43:57.850Z,58.24
2024-05-09T01:45:11.728Z,58.20
2024-05-09T01:46:17.569Z,58.28
2024-05-09T01:47:21.355Z,58.60
2024-05-09T01:48:27.528Z,58.50
2024-05-09T01:49:35.742Z,58.50
2024-05-09T01:50:43.158Z,58.57
2024-05-09T01:51:47.686Z,58.62
2024-05-09T01:52:50.552Z,58.62
2024-05-09T01:53:55.688Z,58.62
2024-05-09T01:55:03.441Z,58.77
2024-05-09T01:56:08.868Z,58.89
2024-05-09T01:58:35.960Z,58.83
2024-05-09T01:59:40.245Z,58.61
2024-05-09T02:00:44.012Z,58.63
2024-05-09T02:01:56.692Z,58.85
2024-05-09T02:02:53.839Z,58.75
2024-05-09T02:03:57.332Z,58.75
2024-05-09T02:05:02.158Z,58.70
2024-05-09T02:06:06.545Z,58.80
2024-05-09T02:07:10.987Z,58.65
2024-05-09T02:08:16.843Z,58.44
2024-05-09T02:09:23.201Z,58.48
2024-05-09T02:10:32.466Z,58.62
2024-05-09T02:12:30.866Z,58.55
2024-05-09T02:13:33.138Z,58.65
2024-05-09T02:14:35.342Z,58.51
2024-05-09T02:15:37.612Z,58.25
2024-05-09T02:16:39.854Z,58.25
2024-05-09T02:17:42.509Z,58.31
2024-05-09T02:18:44.918Z,58.31
2024-05-09T02:19:47.068Z,58.13
2024-05-09T02:20:49.512Z,58.18
2024-05-09T02:21:51.850Z,58.05
2024-05-09T02:22:54.035Z,58.19
2024-05-09T02:23:56.082Z,58.19
2024-05-09T02:24:58.410Z,58.35
2024-05-09T02:26:00.663Z,58.27
2024-05-09T02:27:03.059Z,58.19
2024-05-09T02:28:05.544Z,58.00
2024-05-09T02:29:07.648Z,57.92
2024-05-09T02:30:18.777Z,57.96
2024-05-09T02:31:15.267Z,58.16
2024-05-09T02:32:17.542Z,58.29
2024-05-09T02:33:19.766Z,58.30
2024-05-09T02:34:22.478Z,58.21
2024-05-09T02:35:26.039Z,58.11
2024-05-09T02:36:28.413Z,58.03
2024-05-09T02:37:31.015Z,58.22
2024-05-09T02:38:33.157Z,58.14
2024-05-09T02:39:35.762Z,58.13
2024-05-09T02:40:39.667Z,58.17
2024-05-09T02:41:42.390Z,58.15
2024-05-09T02:42:44.487Z,58.21
2024-05-09T02:43:46.760Z,57.97
2024-05-09T02:44:48.966Z,58.05
2024-05-09T02:45:51.239Z,57.87
2024-05-09T02:46:53.696Z,58.11
2024-05-09T02:47:55.947Z,57.87
2024-05-09T02:48:58.685Z,57.83
2024-05-09T02:50:00.996Z,58.17
2024-05-09T02:51:03.801Z,58.12
2024-05-09T02:52:06.333Z,58.29
2024-05-09T02:53:09.688Z,58.18
2024-05-09T02:54:12.236Z,58.14
2024-05-09T02:55:14.370Z,58.14
2024-05-09T02:56:16.717Z,58.06
2024-05-09T02:57:18.896Z,58.10
2024-05-09T02:58:20.944Z,58.17
2024-05-09T02:59:23.123Z,58.34
2024-05-09T03:00:34.564Z,58.44
2024-05-09T03:01:29.643Z,58.63
2024-05-09T03:02:32.047Z,58.45
2024-05-09T03:03:34.549Z,58.41
2024-05-09T03:04:38.415Z,58.45
2024-05-09T03:05:42.606Z,58.54
2024-05-09T03:06:45.053Z,58.53
2024-05-09T03:07:47.496Z,58.34
2024-05-09T03:08:49.777Z,58.35
2024-05-09T03:09:52.003Z,58.30
2024-05-09T03:10:54.632Z,58.46
2024-05-09T03:11:57.195Z,58.50
2024-05-09T03:12:59.594Z,58.60
2024-05-09T03:14:02.106Z,58.88
2024-05-09T03:15:05.060Z,58.76
2024-05-09T03:16:07.504Z,58.74
2024-05-09T03:17:09.683Z,58.64
2024-05-09T03:18:13.084Z,58.66
2024-05-09T03:19:15.761Z,58.76
2024-05-09T03:20:23.694Z,58.95
2024-05-09T03:21:22.128Z,59.01
2024-05-09T03:22:25.703Z,59.18
2024-05-09T03:23:28.648Z,59.26
2024-05-09T03:24:30.821Z,59.20
2024-05-09T03:25:35.476Z,59.34
2024-05-09T03:26:37.912Z,59.12
2024-05-09T03:27:40.189Z,59.02
2024-05-09T03:28:43.066Z,58.97
2024-05-09T03:29:45.422Z,59.03
2024-05-09T03:30:47.588Z,58.94
2024-05-09T03:31:49.903Z,59.05
2024-05-09T03:32:52.208Z,59.30
2024-05-09T03:33:54.726Z,59.33
2024-05-09T03:34:57.204Z,58.93
2024-05-09T03:35:59.420Z,59.10
2024-05-09T03:37:01.769Z,58.82
2024-05-09T03:38:04.448Z,58.60
2024-05-09T03:39:11.742Z,59.02
2024-05-09T03:40:20.475Z,59.07
2024-05-09T03:41:21.389Z,59.06
2024-05-09T03:42:23.757Z,59.31
2024-05-09T03:43:26.199Z,59.24
2024-05-09T03:44:28.452Z,59.21
2024-05-09T03:45:30.944Z,59.35
2024-05-09T03:46:39.841Z,59.09
2024-05-09T03:47:42.338Z,59.34
2024-05-09T03:48:44.929Z,59.01
2024-05-09T03:49:47.244Z,58.65
2024-05-09T03:50:49.930Z,58.42
2024-05-09T03:51:52.209Z,58.56
2024-05-09T03:52:54.678Z,58.66
2024-05-09T03:53:57.452Z,58.97
2024-05-09T03:55:01.315Z,58.96
2024-05-09T03:56:07.041Z,58.87
2024-05-09T03:57:09.244Z,58.54
2024-05-09T03:58:11.831Z,58.54
2024-05-09T03:59:14.263Z,58.73
2024-05-09T04:00:22.567Z,58.61
2024-05-09T04:01:21.272Z,58.71
2024-05-09T04:02:23.621Z,58.71
2024-05-09T04:03:26.530Z,58.50
2024-05-09T04:04:28.956Z,58.60
2024-05-09T04:05:31.904Z,58.51
2024-05-09T04:06:34.897Z,58.98
2024-05-09T04:07:37.355Z,59.17
2024-05-09T04:08:39.778Z,58.89
2024-05-09T04:09:42.165Z,59.11
2024-05-09T04:10:45.091Z,59.47
2024-05-09T04:11:47.204Z,59.65
2024-05-09T04:12:49.475Z,58.89
2024-05-09T04:13:51.597Z,58.59
2024-05-09T04:14:54.139Z,58.67
2024-05-09T04:15:56.282Z,58.93
2024-05-09T04:16:58.916Z,58.32
2024-05-09T04:18:01.918Z,58.26
2024-05-09T04:19:04.943Z,58.50
2024-05-09T04:20:10.573Z,58.22
2024-05-09T04:21:12.590Z,57.79
2024-05-09T04:22:14.846Z,57.76
2024-05-09T04:23:17.030Z,58.61
2024-05-09T04:24:19.161Z,57.77
2024-05-09T04:25:23.206Z,57.09
2024-05-09T04:26:25.703Z,56.70
2024-05-09T04:27:27.758Z,56.65
2024-05-09T04:28:30.091Z,56.96
2024-05-09T04:29:32.442Z,56.54
2024-05-09T04:30:38.921Z,56.58
2024-05-09T04:31:38.731Z,56.87
2024-05-09T04:32:40.954Z,56.82
2024-05-09T04:33:43.309Z,56.74
2024-05-09T04:34:45.741Z,57.08
2024-05-09T04:35:47.938Z,56.69
2024-05-09T04:36:50.150Z,56.62
2024-05-09T04:37:52.133Z,56.72
2024-05-09T04:38:54.221Z,56.88
2024-05-09T04:39:56.386Z,56.80
2024-05-09T04:40:59.150Z,56.17
2024-05-09T04:42:02.158Z,55.78
2024-05-09T04:43:05.471Z,55.53
2024-05-09T04:44:08.528Z,55.53
2024-05-09T04:45:11.194Z,55.51
2024-05-09T04:46:14.289Z,55.34
2024-05-09T04:47:17.033Z,55.95
2024-05-09T04:48:19.435Z,55.72
2024-05-09T04:49:22.223Z,55.21
2024-05-09T04:50:33.899Z,55.39
2024-05-09T04:51:28.468Z,56.19
2024-05-09T04:52:30.525Z,56.09
2024-05-09T04:53:33.163Z,55.47
2024-05-09T04:54:36.617Z,55.02
2024-05-09T04:55:40.317Z,54.95
2024-05-09T04:56:43.312Z,54.70
2024-05-09T04:57:45.841Z,54.69
2024-05-09T04:58:48.164Z,53.94
2024-05-09T04:59:51.781Z,54.48
2024-05-09T05:00:54.022Z,54.70
2024-05-09T05:01:56.254Z,54.00
2024-05-09T05:02:58.571Z,53.61
2024-05-09T05:04:00.984Z,53.76
2024-05-09T05:05:03.830Z,54.19
2024-05-09T05:06:06.695Z,53.40
2024-05-09T05:07:08.888Z,53.28
2024-05-09T05:08:12.572Z,53.15
2024-05-09T05:09:15.215Z,53.29
2024-05-09T05:10:25.273Z,53.33
2024-05-09T05:11:21.967Z,53.47
2024-05-09T05:12:24.294Z,53.29
2024-05-09T05:13:32.812Z,52.53
2024-05-09T05:14:34.984Z,52.13
2024-05-09T05:15:36.944Z,52.28
2024-05-09T05:16:39.137Z,52.37
2024-05-09T05:17:41.914Z,52.73
2024-05-09T05:18:44.446Z,52.98
2024-05-09T05:19:47.137Z,53.04
2024-05-09T05:20:50.122Z,52.35
2024-05-09T05:21:52.156Z,52.01
2024-05-09T05:22:54.468Z,51.59
2024-05-09T05:23:56.847Z,51.61
2024-05-09T05:24:59.018Z,51.42
2024-05-09T05:26:08.707Z,51.30
2024-05-09T05:27:10.577Z,50.92
2024-05-09T05:28:18.313Z,51.57
2024-05-09T05:29:23.758Z,51.42
2024-05-09T05:30:34.299Z,51.59
2024-05-09T05:31:33.981Z,50.38
2024-05-09T05:32:40.467Z,50.55
2024-05-09T05:33:43.275Z,50.16
2024-05-09T05:34:47.674Z,50.02
2024-05-09T05:35:50.942Z,50.54
2024-05-09T05:36:56.818Z,50.57
2024-05-09T05:38:00.254Z,50.36
2024-05-09T05:39:06.239Z,50.32
2024-05-09T05:40:17.444Z,51.22
2024-05-09T05:41:16.160Z,50.56
2024-05-09T05:42:22.005Z,50.65
2024-05-09T05:43:27.950Z,50.61
2024-05-09T05:44:30.551Z,51.25
2024-05-09T05:45:33.465Z,51.71
2024-05-09T05:46:38.797Z,51.10
2024-05-09T05:47:43.452Z,50.69
2024-05-09T05:48:46.796Z,50.80
2024-05-09T05:49:53.290Z,51.02
2024-05-09T05:51:04.198Z,50.90
2024-05-09T05:52:06.459Z,51.08
2024-05-09T05:53:10.918Z,50.81
2024-05-09T05:54:22.028Z,50.17
2024-05-09T05:55:30.900Z,49.27
2024-05-09T05:56:34.825Z,49.21
2024-05-09T05:57:38.967Z,49.78
2024-05-09T05:58:44.991Z,50.42
2024-05-09T05:59:50.251Z,50.63
2024-05-09T06:00:53.499Z,50.59
2024-05-09T06:01:56.605Z,50.19
2024-05-09T06:03:02.171Z,49.38
2024-05-09T06:04:11.906Z,49.20
2024-05-09T06:05:16.885Z,48.60
2024-05-09T06:06:19.774Z,48.70
2024-05-09T06:07:24.327Z,48.90
2024-05-09T06:08:30.434Z,49.06
2024-05-09T06:09:36.814Z,49.96
2024-05-09T06:10:41.502Z,50.02
2024-05-09T06:11:48.117Z,48.18
2024-05-09T06:12:53.552Z,48.06
2024-05-09T06:13:56.752Z,47.37
2024-05-09T06:15:02.399Z,47.61
2024-05-09T06:16:07.829Z,46.98
2024-05-09T06:17:12.327Z,47.68
2024-05-09T06:18:17.542Z,47.60
2024-05-09T06:19:24.430Z,47.79
2024-05-09T06:20:36.447Z,47.89
2024-05-09T06:21:37.574Z,47.37
2024-05-09T06:22:41.957Z,48.46
2024-05-09T06:23:51.064Z,48.85
2024-05-09T06:24:55.694Z,47.06
2024-05-09T06:26:01.440Z,46.57
2024-05-09T06:27:04.950Z,46.61
2024-05-09T06:28:09.429Z,46.68
2024-05-09T06:29:12.890Z,46.84
2024-05-09T06:30:25.646Z,46.73
2024-05-09T06:31:22.673Z,46.83
2024-05-09T06:32:27.169Z,48.73
2024-05-09T06:33:34.654Z,46.93
2024-05-09T06:34:40.382Z,47.23
2024-05-09T06:35:45.656Z,46.98
2024-05-09T06:36:50.370Z,46.69
2024-05-09T06:37:56.272Z,47.77
2024-05-09T06:38:58.627Z,47.40
2024-05-09T06:40:02.305Z,48.23
2024-05-09T06:41:07.837Z,46.41
2024-05-09T06:42:14.059Z,46.29
2024-05-09T06:43:19.525Z,45.16
2024-05-09T06:44:23.886Z,45.37
2024-05-09T06:45:28.856Z,45.57
2024-05-09T06:46:32.253Z,45.56
2024-05-09T06:47:36.820Z,45.28
2024-05-09T06:48:40.386Z,45.67
2024-05-09T06:49:47.038Z,44.75
2024-05-09T06:50:55.114Z,45.20
2024-05-09T06:51:57.375Z,44.44
2024-05-09T06:53:01.546Z,44.25
2024-05-09T06:54:07.652Z,44.90
2024-05-09T06:55:09.870Z,44.00
2024-05-09T06:56:13.172Z,44.97
2024-05-09T06:57:15.696Z,45.43
2024-05-09T06:58:17.957Z,45.00
2024-05-09T06:59:20.130Z,45.16
2024-05-09T07:00:27.648Z,45.54
2024-05-09T07:01:26.534Z,45.32
2024-05-09T07:02:29.054Z,44.35
2024-05-09T07:03:31.361Z,45.04
2024-05-09T07:05:26.915Z,44.29
2024-05-09T07:06:29.512Z,44.76
2024-05-09T07:07:31.985Z,44.25
2024-05-09T07:08:34.682Z,44.25
2024-05-09T07:09:36.848Z,43.57
2024-05-09T07:10:38.989Z,42.98
2024-05-09T07:11:41.414Z,44.18
2024-05-09T07:12:43.776Z,45.27
2024-05-09T07:13:46.297Z,44.33
2024-05-09T07:14:48.375Z,43.72
2024-05-09T07:15:50.726Z,43.43
2024-05-09T07:16:53.064Z,43.98
2024-05-09T07:17:56.828Z,43.80
2024-05-09T07:19:00.067Z,43.99
2024-05-09T07:20:03.050Z,43.63
2024-05-09T07:21:06.121Z,44.03
2024-05-09T07:22:09.382Z,43.97
2024-05-09T07:23:12.088Z,44.96
2024-05-09T07:24:14.214Z,44.49
2024-05-09T07:25:16.478Z,43.50
2024-05-09T07:26:18.814Z,42.95
2024-05-09T07:27:21.002Z,44.06
2024-05-09T07:28:23.296Z,44.49
2024-05-09T07:29:25.437Z,45.76
2024-05-09T07:30:33.243Z,44.22
2024-05-09T07:31:31.818Z,45.19
2024-05-09T07:32:33.977Z,44.99
2024-05-09T07:33:36.209Z,44.02
2024-05-09T07:34:38.750Z,41.24
2024-05-09T07:35:41.008Z,41.92
2024-05-09T07:36:43.689Z,41.34
2024-05-09T07:37:45.936Z,40.91
2024-05-09T07:38:48.230Z,42.83
2024-05-09T07:39:50.672Z,39.96
2024-05-09T07:40:52.889Z,39.74
2024-05-09T07:41:55.155Z,40.77
2024-05-09T07:42:57.331Z,40.79
2024-05-09T07:43:59.646Z,41.71
2024-05-09T07:45:21.038Z,42.45
2024-05-09T07:47:04.521Z,41.59
2024-05-09T07:48:14.325Z,40.95
2024-05-09T07:49:44.789Z,41.55
2024-05-09T07:51:31.599Z,40.71
2024-05-09T07:53:32.726Z,39.78
2024-05-09T07:53:44.252Z,40.40
2024-05-09T07:54:45.356Z,39.95
2024-05-09T07:55:47.856Z,39.69
2024-05-09T07:56:50.467Z,41.54
2024-05-09T07:57:52.835Z,39.79
2024-05-09T07:58:55.021Z,38.90
2024-05-09T07:59:57.323Z,40.16
2024-05-09T08:00:59.924Z,40.11
2024-05-09T08:02:02.319Z,41.88
2024-05-09T08:03:04.935Z,42.15
2024-05-09T08:04:07.177Z,41.99
2024-05-09T08:05:10.058Z,41.52
2024-05-09T08:06:12.552Z,41.82
2024-05-09T08:07:15.183Z,41.95
2024-05-09T08:09:22.264Z,41.01
2024-05-09T08:10:28.578Z,40.56
2024-05-09T08:11:28.404Z,40.54
2024-05-09T08:12:30.629Z,39.99
2024-05-09T08:13:32.814Z,39.18
2024-05-09T08:14:35.050Z,40.34
2024-05-09T08:15:37.271Z,40.52
2024-05-09T08:16:39.511Z,40.12
2024-05-09T08:17:42.018Z,40.66
2024-05-09T08:18:44.144Z,40.45
2024-05-09T08:19:46.504Z,40.52
2024-05-09T08:20:48.933Z,41.61
2024-05-09T08:21:51.504Z,41.51
2024-05-09T08:22:54.124Z,40.90
2024-05-09T08:23:56.536Z,42.70
2024-05-09T08:24:58.559Z,41.03
2024-05-09T08:26:01.162Z,41.59
2024-05-09T08:27:03.857Z,41.56
2024-05-09T08:28:06.785Z,41.59
2024-05-09T08:29:09.406Z,41.98
2024-05-09T08:30:21.321Z,42.24
2024-05-09T08:31:16.168Z,41.39
2024-05-09T08:32:18.577Z,40.16
2024-05-09T08:33:21.151Z,41.08
2024-05-09T08:34:23.532Z,40.65
2024-05-09T08:35:26.101Z,40.15
2024-05-09T08:36:28.973Z,41.06
2024-05-09T08:37:36.628Z,39.05
2024-05-09T08:38:35.576Z,40.20
2024-05-09T08:39:38.032Z,41.94
2024-05-09T08:40:41.393Z,42.43
2024-05-09T08:41:47.437Z,40.79
2024-05-09T08:42:50.979Z,40.55
2024-05-09T08:43:53.759Z,39.86
2024-05-09T08:44:56.199Z,39.00
2024-05-09T08:45:59.203Z,40.21
2024-05-09T08:47:02.634Z,41.71
2024-05-09T08:48:11.268Z,42.26
2024-05-09T08:49:15.873Z,41.85
2024-05-09T08:50:31.424Z,42.72
2024-05-09T08:51:25.503Z,41.52
2024-05-09T08:52:27.880Z,41.30
2024-05-09T08:53:30.110Z,40.09
2024-05-09T08:54:32.662Z,41.17
2024-05-09T08:55:37.353Z,40.98
2024-05-09T08:56:43.941Z,39.98
2024-05-09T08:57:46.870Z,38.69
2024-05-09T08:58:50.894Z,40.01
2024-05-09T08:59:54.206Z,39.66
2024-05-09T09:00:57.652Z,39.96
2024-05-09T09:02:01.812Z,40.83
2024-05-09T09:03:07.901Z,39.77
2024-05-09T09:04:13.379Z,40.82
2024-05-09T09:05:16.929Z,40.25
2024-05-09T09:06:21.437Z,40.27
2024-05-09T09:07:25.978Z,41.23
2024-05-09T09:08:28.749Z,37.88
2024-05-09T09:09:32.581Z,39.74
2024-05-09T09:10:37.343Z,40.53
2024-05-09T09:11:39.539Z,40.34
2024-05-09T09:12:41.775Z,40.63
2024-05-09T09:13:43.888Z,40.48
2024-05-09T09:14:46.362Z,39.13
2024-05-09T09:15:52.011Z,39.62
2024-05-09T09:16:54.482Z,39.56
2024-05-09T09:17:57.714Z,39.80
2024-05-09T09:18:59.953Z,39.75
2024-05-09T09:20:02.946Z,39.76
2024-05-09T09:21:08.921Z,38.90
2024-05-09T09:22:12.379Z,41.12
2024-05-09T09:23:14.832Z,41.95
2024-05-09T09:24:16.898Z,40.70
2024-05-09T09:25:22.792Z,40.67
2024-05-09T09:26:24.942Z,39.84
2024-05-09T09:27:27.432Z,39.64
2024-05-09T09:28:29.859Z,40.60
2024-05-09T09:29:31.845Z,40.96
2024-05-09T09:30:37.517Z,39.55
2024-05-09T09:31:38.729Z,39.69
2024-05-09T09:32:41.063Z,39.44
2024-05-09T09:33:43.430Z,40.35
2024-05-09T09:34:47.157Z,39.90
2024-05-09T09:35:49.254Z,38.57
2024-05-09T09:36:55.056Z,39.10
2024-05-09T09:38:00.991Z,38.61
2024-05-09T09:39:03.824Z,39.79
2024-05-09T09:40:10.736Z,39.95
2024-05-09T09:41:16.449Z,39.65
2024-05-09T09:42:22.076Z,38.50
2024-05-09T09:43:26.136Z,37.88
2024-05-09T09:44:34.169Z,37.94
2024-05-09T09:45:37.432Z,37.90
2024-05-09T09:46:41.037Z,37.03
2024-05-09T09:47:44.736Z,38.94
2024-05-09T09:48:48.251Z,39.85
2024-05-09T09:49:51.206Z,39.83
2024-05-09T09:50:56.954Z,38.79
2024-05-09T09:52:01.128Z,38.36
2024-05-09T09:53:06.360Z,38.08
2024-05-09T09:54:11.061Z,39.60
2024-05-09T09:55:14.281Z,37.08
2024-05-09T09:56:17.759Z,38.03
2024-05-09T09:57:22.719Z,37.55
2024-05-09T09:58:25.793Z,37.58
2024-05-09T09:59:29.378Z,36.80
2024-05-09T10:00:34.063Z,38.18
2024-05-09T10:01:37.794Z,37.54
2024-05-09T10:02:43.290Z,38.03
2024-05-09T10:03:45.961Z,37.49
2024-05-09T10:04:49.628Z,37.48
2024-05-09T10:05:53.495Z,37.46
2024-05-09T10:07:02.985Z,37.60
2024-05-09T10:08:07.398Z,38.11
2024-05-09T10:09:13.715Z,37.10
2024-05-09T10:10:31.439Z,37.57
2024-05-09T10:11:34.889Z,36.72
2024-05-09T10:12:36.563Z,36.24
2024-05-09T10:13:40.932Z,38.79
2024-05-09T10:14:52.956Z,38.89
2024-05-09T10:15:55.312Z,38.56
2024-05-09T10:17:04.654Z,36.76
2024-05-09T10:18:07.151Z,37.40
2024-05-09T10:19:11.830Z,38.65
2024-05-09T10:20:21.431Z,37.56
2024-05-09T10:21:19.649Z,35.96
2024-05-09T10:22:27.914Z,38.22
2024-05-09T10:23:33.322Z,37.10
2024-05-09T10:24:52.514Z,37.98
2024-05-09T10:26:01.844Z,36.62
2024-05-09T10:27:04.418Z,35.90
2024-05-09T10:28:10.327Z,37.77
2024-05-09T10:29:17.160Z,35.40
2024-05-09T10:30:29.651Z,34.61
2024-05-09T10:31:29.801Z,38.05
2024-05-09T10:32:39.771Z,38.19
2024-05-09T10:33:47.088Z,37.71
2024-05-09T10:35:07.422Z,36.66
2024-05-09T10:36:17.134Z,37.53
2024-05-09T10:37:19.476Z,36.96
2024-05-09T10:38:22.954Z,37.98
2024-05-09T10:39:25.650Z,36.71
2024-05-09T10:40:31.402Z,36.93
2024-05-09T10:41:32.995Z,36.27
2024-05-09T10:42:38.331Z,36.50
2024-05-09T10:43:42.100Z,37.29
2024-05-09T10:44:44.284Z,38.75
2024-05-09T10:45:46.999Z,36.14
2024-05-09T10:46:49.842Z,36.75
2024-05-09T10:47:52.249Z,36.06
2024-05-09T10:48:56.384Z,34.93
2024-05-09T10:49:58.763Z,34.97
2024-05-09T10:51:01.644Z,35.25
2024-05-09T10:52:04.095Z,35.83
2024-05-09T10:53:06.364Z,35.78
2024-05-09T10:54:08.441Z,35.63
2024-05-09T10:55:10.476Z,36.14
2024-05-09T10:56:15.711Z,36.49
2024-05-09T10:57:18.339Z,36.34
2024-05-09T10:58:20.527Z,37.70
2024-05-09T10:59:23.020Z,38.53
2024-05-09T11:00:35.997Z,37.56
2024-05-09T11:01:36.179Z,36.82
2024-05-09T11:02:38.738Z,37.08
2024-05-09T11:03:41.826Z,36.88
2024-05-09T11:04:44.621Z,37.35
2024-05-09T11:05:47.318Z,36.41
2024-05-09T11:06:49.712Z,37.47
2024-05-09T11:07:52.191Z,37.76
2024-05-09T11:08:56.064Z,37.86
2024-05-09T11:09:58.454Z,36.44
2024-05-09T11:11:02.027Z,36.37
2024-05-09T11:12:05.251Z,37.15
2024-05-09T11:13:07.462Z,35.79
2024-05-09T11:14:12.954Z,35.34
2024-05-09T11:15:15.276Z,35.23
2024-05-09T11:16:21.187Z,35.65
2024-05-09T11:17:24.104Z,36.24
2024-05-09T11:18:30.369Z,34.94
2024-05-09T11:19:42.010Z,35.63
2024-05-09T11:20:44.720Z,35.68
2024-05-09T11:21:51.220Z,36.52
2024-05-09T11:22:53.323Z,36.46
2024-05-09T11:23:56.430Z,37.95
2024-05-09T11:24:58.830Z,34.16
2024-05-09T11:26:01.382Z,35.55
2024-05-09T11:27:05.676Z,35.97
2024-05-09T11:28:08.135Z,34.90
2024-05-09T11:29:10.336Z,35.35
2024-05-09T11:30:26.618Z,36.36
2024-05-09T11:31:22.388Z,35.24
2024-05-09T11:32:29.755Z,35.08
2024-05-09T11:33:34.500Z,34.14
2024-05-09T11:34:39.152Z,34.00
2024-05-09T11:35:42.242Z,34.39
2024-05-09T11:36:44.717Z,33.78
2024-05-09T11:37:47.045Z,34.36
2024-05-09T11:38:49.168Z,34.02
2024-05-09T11:39:51.317Z,35.77
2024-05-09T11:40:53.716Z,35.00
2024-05-09T11:41:56.845Z,34.83
2024-05-09T11:42:59.207Z,32.36
2024-05-09T11:44:01.835Z,32.26
2024-05-09T11:45:05.476Z,32.79
2024-05-09T11:46:08.985Z,33.49
2024-05-09T11:47:11.456Z,32.00
2024-05-09T11:48:13.967Z,32.61
2024-05-09T11:49:16.773Z,31.28
2024-05-09T11:50:27.021Z,29.38
2024-05-09T11:51:23.390Z,29.28
2024-05-09T11:52:25.454Z,30.27
2024-05-09T11:53:27.798Z,28.48
2024-05-09T11:54:29.817Z,28.83
2024-05-09T11:55:32.573Z,27.86
2024-05-09T11:56:34.922Z,28.32
2024-05-09T11:57:37.181Z,27.89
2024-05-09T11:58:39.495Z,28.51
2024-05-09T11:59:41.615Z,28.12
2024-05-09T12:00:44.413Z,29.00
2024-05-09T12:01:46.964Z,28.77
2024-05-09T12:02:49.228Z,29.55
2024-05-09T12:03:51.988Z,28.35
2024-05-09T12:04:54.543Z,29.94
2024-05-09T12:05:57.295Z,29.46
2024-05-09T12:06:59.885Z,28.79
2024-05-09T12:08:02.863Z,28.62
2024-05-09T12:09:05.158Z,28.92
2024-05-09T12:10:11.846Z,27.70
2024-05-09T12:11:12.922Z,27.84
2024-05-09T12:12:15.168Z,28.35
2024-05-09T12:13:17.366Z,29.25
2024-05-09T12:14:19.934Z,28.47
2024-05-09T12:15:22.227Z,28.30
2024-05-09T12:16:24.962Z,28.93
2024-05-09T12:17:27.268Z,28.99
2024-05-09T12:18:30.252Z,29.14
2024-05-09T12:19:32.627Z,29.57
2024-05-09T12:20:38.428Z,27.83
2024-05-09T12:21:39.521Z,27.69
2024-05-09T12:22:41.508Z,26.42
2024-05-09T12:23:43.521Z,28.65
2024-05-09T12:24:45.623Z,28.58
2024-05-09T12:25:47.867Z,27.76
2024-05-09T12:26:51.160Z,28.02
2024-05-09T12:27:53.772Z,27.89
2024-05-09T12:28:56.116Z,27.77
2024-05-09T12:29:58.257Z,28.50
2024-05-09T12:31:00.792Z,27.31
2024-05-09T12:32:04.081Z,28.35
2024-05-09T12:33:11.114Z,28.02
2024-05-09T12:34:15.493Z,27.34
2024-05-09T12:35:17.901Z,26.89
2024-05-09T12:36:20.342Z,26.84
2024-05-09T12:37:22.576Z,26.58
2024-05-09T12:38:24.751Z,27.07
2024-05-09T12:39:26.902Z,28.32
2024-05-09T12:40:36.405Z,27.08
2024-05-09T12:41:33.578Z,27.11
2024-05-09T12:42:35.676Z,25.90
2024-05-09T12:43:37.791Z,24.79
2024-05-09T12:44:40.095Z,26.99
2024-05-09T12:45:42.552Z,26.78
2024-05-09T12:46:45.004Z,27.23
2024-05-09T12:47:47.775Z,27.35
2024-05-09T12:48:50.515Z,28.47
2024-05-09T12:49:53.128Z,27.26
2024-05-09T12:50:55.391Z,27.30
2024-05-09T12:51:57.587Z,26.83
2024-05-09T12:52:59.662Z,26.10
2024-05-09T12:54:01.786Z,25.72
2024-05-09T12:55:04.691Z,26.73
2024-05-09T12:56:09.380Z,27.12
2024-05-09T12:57:11.680Z,26.91
2024-05-09T12:58:14.203Z,26.73
2024-05-09T12:59:17.696Z,27.74
2024-05-09T13:00:28.341Z,26.67
2024-05-09T13:01:31.924Z,28.99
2024-05-09T13:02:39.436Z,29.11
2024-05-09T13:03:44.807Z,25.85
2024-05-09T13:04:47.961Z,27.67
2024-05-09T13:05:53.392Z,27.62
2024-05-09T13:07:00.181Z,25.92
2024-05-09T13:08:04.878Z,26.86
2024-05-09T13:09:09.780Z,26.68
2024-05-09T13:10:19.998Z,26.10
2024-05-09T13:11:20.832Z,26.06
2024-05-09T13:12:30.804Z,26.15
2024-05-09T13:13:35.710Z,26.03
2024-05-09T13:14:43.380Z,25.20
2024-05-09T13:15:47.434Z,26.12
2024-05-09T13:16:50.904Z,26.78
2024-05-09T13:18:01.538Z,26.37
2024-05-09T13:19:04.353Z,26.15
2024-05-09T13:20:18.896Z,26.44
2024-05-09T13:21:19.717Z,26.15
2024-05-09T13:22:24.161Z,25.51
2024-05-09T13:23:26.783Z,26.03
2024-05-09T13:24:30.922Z,25.33
2024-05-09T13:25:40.130Z,25.82
2024-05-09T13:26:44.606Z,24.61
2024-05-09T13:27:52.291Z,25.24
2024-05-09T13:29:00.178Z,25.68
2024-05-09T13:30:12.068Z,25.44
2024-05-09T13:31:11.996Z,26.57
2024-05-09T13:32:17.102Z,27.39
2024-05-09T13:33:22.287Z,27.16
2024-05-09T13:34:26.420Z,26.11
2024-05-09T13:35:30.826Z,26.18
2024-05-09T13:36:36.162Z,27.35
2024-05-09T13:37:39.389Z,26.18
2024-05-09T13:38:43.141Z,26.56
2024-05-09T13:39:47.596Z,26.22
2024-05-09T13:40:51.047Z,26.75
2024-05-09T13:41:54.391Z,27.43
2024-05-09T13:42:58.262Z,25.84
2024-05-09T13:44:01.339Z,25.05
2024-05-09T13:45:07.662Z,25.53
2024-05-09T13:46:11.141Z,26.41
2024-05-09T13:47:17.977Z,26.11
2024-05-09T13:48:22.407Z,26.45
2024-05-09T13:49:27.756Z,25.58
2024-05-09T13:50:35.702Z,27.17
2024-05-09T13:51:37.883Z,26.86